Time;durP1;ratioP1;P1;durP2;ratioP2;P2;SDS_P1;SDS_P2;PMS_P1;PMS_P2;Temp;Humidity;BMP_temperature;BMP_pressure;BME280_temperature;BME280_humidity;BME280_pressure;Samples;Min_cycle;Max_cycle;Signal;HPM_P1;HPM_P2
2022/08/07 00:04:15;;;;;;;;;;;;;;;28.22;43.27;100443.94;20455831;28;102311;-75
2022/08/07 00:14:15;;;;;;;;;;;;;;;27.29;39.83;100453.53;20449043;28;99279;-73
2022/08/07 00:24:16;;;;;;;;;;;;;;;26.43;41.54;100455.88;20491354;28;98306;-78
2022/08/07 00:34:16;;;;;;;;;;;;;;;25.96;42.55;100448.09;20495699;28;98534;-78
2022/08/07 00:44:16;;;;;;;;;;;;;;;26.10;42.32;100438.78;20441948;27;100996;-78
2022/08/07 00:54:17;;;;;;;;;;;;;;;25.87;42.77;100453.28;20439017;28;98837;-77
2022/08/07 01:04:17;;;;;;;;;;;;;;;25.99;42.27;100445.16;20448191;28;100267;-77
2022/08/07 01:14:21;;;;;;;;;;;;;;;25.86;42.93;100438.34;20454006;28;99178;-76
2022/08/07 01:24:22;;;;;;;;;;;;;;;25.79;43.02;100442.56;20463292;28;101534;-75
2022/08/07 01:34:22;;;;;;;;;;;;;;;25.61;43.34;100444.34;20453985;28;100602;-75
2022/08/07 01:44:23;;;;;;;;;;;;;;;25.54;43.78;100437.00;20461705;28;98264;-75
2022/08/07 01:54:25;;;;;;;;;;;;;;;25.52;43.68;100444.28;20455954;28;97971;-75
2022/08/07 02:04:29;;;;;;;;;;;;;;;25.54;43.57;100439.63;20466656;28;98266;-76
2022/08/07 02:14:30;;;;;;;;;;;;;;;25.56;43.29;100456.25;20454137;28;101615;-76
2022/08/07 02:24:30;;;;;;;;;;;;;;;25.41;44.06;100455.91;20464128;28;98844;-76
2022/08/07 02:34:31;;;;;;;;;;;;;;;25.38;44.25;100458.00;20459123;28;101215;-79
2022/08/07 02:44:32;;;;;;;;;;;;;;;25.34;44.07;100464.53;20459240;28;98546;-78
2022/08/07 02:54:33;;;;;;;;;;;;;;;25.27;44.33;100472.22;20454382;28;98298;-77
2022/08/07 03:04:34;;;;;;;;;;;;;;;25.35;44.20;100471.50;20464925;28;97322;-78
2022/08/07 03:14:37;;;;;;;;;;;;;;;25.27;44.36;100472.22;20475534;28;97966;-77
2022/08/07 03:24:37;;;;;;;;;;;;;;;25.29;44.50;100469.44;20460359;28;99199;-76
2022/08/07 03:34:39;;;;;;;;;;;;;;;25.36;44.13;100478.47;20455915;28;97956;-78
2022/08/07 03:44:43;;;;;;;;;;;;;;;25.48;43.61;100477.34;20470186;28;97828;-78
2022/08/07 03:54:44;;;;;;;;;;;;;;;25.52;43.65;100481.41;20478373;28;99929;-77
2022/08/07 04:04:44;;;;;;;;;;;;;;;25.46;43.61;100500.50;20463565;28;99068;-77
2022/08/07 04:14:45;;;;;;;;;;;;;;;25.48;43.53;100509.16;20467030;28;98018;-76
2022/08/07 04:24:47;;;;;;;;;;;;;;;25.41;43.64;100519.50;20466517;28;98419;-78
2022/08/07 04:34:49;;;;;;;;;;;;;;;25.43;43.72;100516.72;20468955;28;97828;-76
2022/08/07 04:44:49;;;;;;;;;;;;;;;25.35;43.97;100533.31;20478582;27;99080;-76
2022/08/07 04:55:11;;;;;;;;;;;;;;;25.37;44.03;100536.66;20467090;27;99089;-77
2022/08/07 05:05:17;;;;;;;;;;;;;;;25.56;43.85;100546.41;20464094;28;101725;-77
2022/08/07 05:15:21;;;;;;;;;;;;;;;25.67;43.53;100557.78;20480210;28;98171;-76
2022/08/07 05:25:22;;;;;;;;;;;;;;;25.53;43.18;100565.22;20469815;28;100482;-76
2022/08/07 05:35:24;;;;;;;;;;;;;;;25.60;42.90;100570.81;20476544;28;98693;-76
2022/08/07 05:45:25;;;;;;;;;;;;;;;25.76;42.67;100569.38;20499799;28;98234;-75
2022/08/07 05:55:25;;;;;;;;;;;;;;;25.80;42.52;100578.69;20495458;28;97931;-76
2022/08/07 06:05:27;;;;;;;;;;;;;;;25.73;41.93;100573.13;20513953;28;98025;-76
2022/08/07 06:15:29;;;;;;;;;;;;;;;25.75;41.74;100573.81;20505857;28;97977;-77
2022/08/07 06:25:29;;;;;;;;;;;;;;;25.91;41.37;100581.16;20497467;28;98737;-76
2022/08/07 06:35:30;;;;;;;;;;;;;;;25.86;41.07;100597.50;20493114;28;101466;-76
2022/08/07 06:45:33;;;;;;;;;;;;;;;25.92;40.90;100609.38;20503961;28;97662;-75
2022/08/07 06:55:34;;;;;;;;;;;;;;;25.96;40.46;100609.91;20480566;28;98300;-77
2022/08/07 07:05:34;;;;;;;;;;;;;;;25.86;40.24;100607.31;20468080;28;98405;-78
2022/08/07 07:15:39;;;;;;;;;;;;;;;25.83;40.29;100611.09;20466631;28;101128;-74
2022/08/07 07:25:43;;;;;;;;;;;;;;;25.84;40.09;100602.16;20457164;28;104250;-78
2022/08/07 07:35:47;;;;;;;;;;;;;;;25.78;40.14;100600.06;20447300;28;98357;-75
2022/08/07 07:45:48;;;;;;;;;;;;;;;25.84;39.95;100593.34;20473728;28;99016;-80
2022/08/07 07:55:52;;;;;;;;;;;;;;;25.89;39.68;100602.53;20477180;28;98815;-75
2022/08/07 08:05:53;;;;;;;;;;;;;;;25.88;39.27;100598.22;20495836;28;98472;-77
2022/08/07 08:15:55;;;;;;;;;;;;;;;25.89;38.48;100607.03;20508925;28;97815;-75
2022/08/07 08:36:28;;;;;;;;;;;;;;;26.02;38.43;100604.88;20489642;28;100639;-78
2022/08/07 08:46:32;;;;;;;;;;;;;;;26.13;38.08;100608.34;20482354;28;98111;-77
2022/08/07 08:56:35;;;;;;;;;;;;;;;26.12;37.12;100604.03;20486997;28;97575;-78
2022/08/07 09:06:38;;;;;;;;;;;;;;;26.15;37.32;100606.41;20470390;28;98541;-78
2022/08/07 09:16:57;;;;;;;;;;;;;;;26.24;36.81;100607.34;20496097;28;97965;-79
2022/08/07 09:27:04;;;;;;;;;;;;;;;26.40;36.34;100588.91;20487450;28;100997;-78
2022/08/07 09:37:13;;;;;;;;;;;;;;;26.53;36.39;100588.59;20500939;28;98792;-76
2022/08/07 09:47:18;;;;;;;;;;;;;;;26.66;36.77;100586.41;20499978;28;98234;-78
2022/08/07 09:57:35;;;;;;;;;;;;;;;26.75;36.36;100575.91;20512807;28;97747;-78
2022/08/07 10:07:44;;;;;;;;;;;;;;;26.86;36.74;100554.41;20483235;28;100505;-77
2022/08/07 10:17:45;;;;;;;;;;;;;;;26.93;36.13;100549.31;20484521;28;98897;-76
2022/08/07 10:28:00;;;;;;;;;;;;;;;27.00;35.60;100537.06;20491558;28;101305;-76
2022/08/07 10:38:33;;;;;;;;;;;;;;;27.05;35.60;100532.16;20473041;28;97543;-75
2022/08/07 10:48:39;;;;;;;;;;;;;;;27.05;35.91;100515.34;20471078;28;97599;-74
2022/08/07 10:58:58;;;;;;;;;;;;;;;27.16;36.03;100507.16;20475781;28;99001;-75
2022/08/07 11:09:04;;;;;;;;;;;;;;;27.27;36.00;100501.56;20472618;28;98051;-74
2022/08/07 11:19:04;;;;;;;;;;;;;;;27.37;36.62;100490.81;20477133;28;97774;-75
2022/08/07 11:29:05;;;;;;;;;;;;;;;27.54;37.00;100478.47;20473385;28;99248;-77
2022/08/07 11:39:13;;;;;;;;;;;;;;;27.68;37.43;100479.69;20479491;28;98272;-76
2022/08/07 11:49:23;;;;;;;;;;;;;;;27.75;37.58;100474.56;20498109;27;97829;-77
2022/08/07 11:59:23;;;;;;;;;;;;;;;27.90;37.48;100466.81;20489624;28;100603;-76
2022/08/07 12:09:27;;;;;;;;;;;;;;;28.05;37.33;100456.38;20488711;28;102551;-76
2022/08/07 12:19:46;;;;;;;;;;;;;;;28.17;36.52;100457.75;20480299;28;98842;-77
2022/08/07 12:29:57;;;;;;;;;;;;;;;28.32;36.58;100439.31;20494146;28;101263;-76
2022/08/07 12:39:57;;;;;;;;;;;;;;;28.44;36.03;100434.47;20483795;28;98428;-76
2022/08/07 12:50:13;;;;;;;;;;;;;;;28.54;36.24;100420.97;20495995;27;97622;-75
2022/08/07 13:00:13;;;;;;;;;;;;;;;28.62;36.45;100406.84;20494632;28;97985;-77
2022/08/07 13:10:21;;;;;;;;;;;;;;;28.73;36.41;100406.53;20485329;27;97751;-76
2022/08/07 13:20:29;;;;;;;;;;;;;;;28.81;36.20;100403.84;20490258;28;97542;-78
2022/08/07 13:30:30;;;;;;;;;;;;;;;28.94;36.92;100400.63;20483061;28;98666;-71
2022/08/07 13:40:33;;;;;;;;;;;;;;;28.93;36.89;100396.34;20468180;28;100278;-73
2022/08/07 13:50:36;;;;;;;;;;;;;;;28.86;37.54;100377.50;20472253;28;99974;-75
2022/08/07 14:00:40;;;;;;;;;;;;;;;28.88;38.70;100366.69;20443988;28;98553;-75
2022/08/07 14:10:41;;;;;;;;;;;;;;;28.89;38.70;100355.03;20442045;28;101437;-73
2022/08/07 14:20:44;;;;;;;;;;;;;;;28.90;38.40;100354.03;20487941;28;99389;-72
2022/08/07 14:30:46;;;;;;;;;;;;;;;28.89;38.45;100349.69;20492559;28;98549;-73
2022/08/07 14:40:52;;;;;;;;;;;;;;;28.90;38.44;100346.84;20491305;28;98920;-72
2022/08/07 14:50:54;;;;;;;;;;;;;;;28.86;38.44;100334.88;20505394;28;97879;-73
2022/08/07 15:00:55;;;;;;;;;;;;;;;28.86;38.45;100326.06;20483598;28;98704;-74
2022/08/07 15:10:58;;;;;;;;;;;;;;;28.84;38.57;100317.41;20485109;28;97944;-74
2022/08/07 15:21:01;;;;;;;;;;;;;;;28.81;38.44;100317.72;20476042;28;98380;-74
2022/08/07 15:31:03;;;;;;;;;;;;;;;28.79;38.67;100296.59;20479885;28;101291;-73
2022/08/07 15:41:08;;;;;;;;;;;;;;;28.79;38.88;100290.44;20488336;28;98583;-73
2022/08/07 15:51:08;;;;;;;;;;;;;;;28.79;38.71;100293.09;20477292;28;97724;-74
2022/08/07 16:01:15;;;;;;;;;;;;;;;28.78;38.73;100289.59;20479895;28;97673;-73
2022/08/07 16:11:33;;;;;;;;;;;;;;;28.79;38.71;100293.09;20484240;28;100222;-73
2022/08/07 16:21:45;;;;;;;;;;;;;;;28.76;38.81;100286.28;20490158;28;98435;-74
2022/08/07 16:31:52;;;;;;;;;;;;;;;28.74;39.02;100289.09;20496341;28;101378;-73
2022/08/07 16:42:02;;;;;;;;;;;;;;;28.73;38.97;100294.63;20481616;28;98550;-73
2022/08/07 16:52:18;;;;;;;;;;;;;;;28.70;39.10;100294.97;20499636;28;98563;-73
2022/08/07 17:02:21;;;;;;;;;;;;;;;28.65;38.88;100298.13;20503033;28;101146;-72
2022/08/07 17:13:00;;;;;;;;;;;;;;;28.63;39.11;100297.44;20509757;28;98119;-74
2022/08/07 17:23:15;;;;;;;;;;;;;;;28.59;39.29;100304.13;20495591;28;97359;-72
2022/08/07 17:33:23;;;;;;;;;;;;;;;28.54;39.22;100303.78;20511860;28;97750;-73
2022/08/07 17:43:37;;;;;;;;;;;;;;;28.53;39.38;100299.47;20520926;28;98522;-72
2022/08/07 17:53:56;;;;;;;;;;;;;;;28.49;39.45;100324.78;20499555;28;98649;-73
2022/08/07 18:04:06;;;;;;;;;;;;;;;28.43;39.73;100327.13;20493418;28;97772;-73
2022/08/07 18:14:17;;;;;;;;;;;;;;;28.41;40.00;100352.25;20541785;27;97046;-74
2022/08/07 18:24:37;;;;;;;;;;;;;;;28.40;39.71;100371.91;20490554;28;98753;-73
2022/08/07 18:34:46;;;;;;;;;;;;;;;28.37;39.70;100372.22;20486742;28;98521;-73
2022/08/07 18:44:55;;;;;;;;;;;;;;;28.41;41.14;100387.69;20437298;28;98569;-74
2022/08/07 18:55:02;;;;;;;;;;;;;;;28.38;39.52;100396.03;20480986;28;98567;-74
2022/08/07 19:05:24;;;;;;;;;;;;;;;28.39;38.73;100410.16;20455860;28;97806;-76
2022/08/07 19:15:31;;;;;;;;;;;;;;;28.36;37.25;100403.34;20474243;28;98687;-75
2022/08/07 19:25:34;;;;;;;;;;;;;;;28.14;33.41;100423.47;20466483;28;99325;-76
2022/08/07 19:35:36;;;;;;;;;;;;;;;28.02;32.91;100435.41;20453336;28;98208;-76
2022/08/07 19:45:40;;;;;;;;;;;;;;;27.86;32.67;100462.81;20462449;28;101163;-78
2022/08/07 19:55:42;;;;;;;;;;;;;;;27.84;33.05;100464.78;20467293;28;98321;-76
2022/08/07 20:05:45;;;;;;;;;;;;;;;27.68;32.79;100463.72;20500096;28;97823;-78
2022/08/07 20:15:46;;;;;;;;;;;;;;;27.67;32.53;100464.72;20507606;27;97284;-78
2022/08/07 20:25:47;;;;;;;;;;;;;;;27.33;32.39;100478.81;20484395;27;97848;-78
2022/08/07 20:35:49;;;;;;;;;;;;;;;26.98;32.91;100480.59;20469963;27;97865;-76
2022/08/07 20:45:51;;;;;;;;;;;;;;;26.88;33.56;100487.81;20451221;28;98855;-77
2022/08/07 20:55:55;;;;;;;;;;;;;;;26.60;33.50;100490.53;20488535;28;98557;-77
2022/08/07 21:06:07;;;;;;;;;;;;;;;26.58;33.79;100500.50;20497287;28;100433;-76
2022/08/07 21:16:08;;;;;;;;;;;;;;;26.53;34.18;100508.91;20495011;28;99798;-76
2022/08/07 21:26:19;;;;;;;;;;;;;;;26.56;34.01;100521.06;20482836;28;99177;-76
2022/08/07 21:36:35;;;;;;;;;;;;;;;26.36;34.04;100531.81;20473269;28;98404;-76
2022/08/07 21:46:46;;;;;;;;;;;;;;;26.61;33.40;100540.00;20487470;28;100270;-76
2022/08/07 21:57:02;;;;;;;;;;;;;;;26.61;33.38;100540.00;20491046;28;98213;-76
2022/08/07 22:07:05;;;;;;;;;;;;;;;26.56;33.48;100537.81;20492662;28;100815;-76
2022/08/07 22:17:06;;;;;;;;;;;;;;;26.59;33.52;100555.28;20481376;28;99581;-74
2022/08/07 22:27:22;;;;;;;;;;;;;;;26.52;33.31;100549.72;20467573;28;100912;-75
2022/08/07 22:37:31;;;;;;;;;;;;;;;26.49;33.29;100553.53;20455646;28;101044;-75
2022/08/07 22:47:34;;;;;;;;;;;;;;;26.29;33.33;100557.28;20457424;28;98464;-75
2022/08/07 22:57:34;;;;;;;;;;;;;;;26.25;33.85;100556.75;20448852;28;98458;-75
2022/08/07 23:07:47;;;;;;;;;;;;;;;25.95;34.98;100576.41;20454231;28;98555;-74
2022/08/07 23:18:11;;;;;;;;;;;;;;;26.11;34.66;100581.97;20451171;28;98696;-74
2022/08/07 23:28:11;;;;;;;;;;;;;;;26.17;34.75;100578.72;20436448;28;97870;-75
2022/08/07 23:38:12;;;;;;;;;;;;;;;25.92;35.16;100574.88;20452623;28;97918;-75
2022/08/07 23:48:18;;;;;;;;;;;;;;;25.45;35.60;100574.88;20460420;28;100621;-75
2022/08/07 23:58:40;;;;;;;;;;;;;;;25.35;35.65;100577.53;20458012;28;98808;-77
